Terminal Aerodrome Forecast
Issued by NWS Shreveport, LA

Home | Current Version | Previous Version | Text Only | Print | Product List | Glossary On
Versions: 1 2 3 4 5 6 7 8 9 10 11 12 13 14 15 16
837
FTUS44 KSHV 222327
TAFSHV
TAF
KSHV 222327Z 2300/2324 VRB03KT P6SM SKC
      TEMPO 2309/2312 3SM BR
     FM231200 00000KT 5SM BR SCT005
      TEMPO 2312/2315 P6SM NSW BKN008
     FM231500 11006KT P6SM SCT025
     FM231800 11006KT P6SM SCT040=

USA.gov is the U.S. government's official web portal to all federal, state and local government web resources and services.